Time;durP1;ratioP1;P1;durP2;ratioP2;P2;SDS_P1;SDS_P2;PMS_P1;PMS_P2;Temp;Humidity;BMP_temperature;BMP_pressure;BME280_temperature;BME280_humidity;BME280_pressure;Samples;Min_cycle;Max_cycle;Signal;HPM_P1;HPM_P2
2022/03/02 00:02:14;;;;;;;30.20;14.88;;;;;;;4.35;91.04;102861.22;5062834;28;20036;-73
2022/03/02 00:04:40;;;;;;;31.95;15.57;;;;;;;4.30;90.36;102855.31;5066452;28;20025;-73
2022/03/02 00:07:05;;;;;;;29.80;16.45;;;;;;;4.28;91.58;102858.00;5061955;28;20040;-73
2022/03/02 00:09:31;;;;;;;33.90;15.02;;;;;;;4.24;91.28;102860.78;5065219;28;20024;-73
2022/03/02 00:11:57;;;;;;;31.00;16.10;;;;;;;4.19;91.33;102854.91;5064402;28;20044;-73
2022/03/02 00:14:22;;;;;;;31.60;16.98;;;;;;;4.23;92.24;102851.25;5065076;28;20451;-73
2022/03/02 00:16:48;;;;;;;35.28;16.52;;;;;;;4.24;91.52;102842.50;5063872;28;20032;-73
2022/03/02 00:19:13;;;;;;;32.00;16.77;;;;;;;4.22;92.13;102852.16;5066930;28;20108;-73
2022/03/02 00:21:39;;;;;;;29.98;14.52;;;;;;;4.20;91.42;102846.13;5062174;28;20510;-73
2022/03/02 00:24:05;;;;;;;32.72;15.45;;;;;;;4.14;92.19;102847.25;5064609;28;20480;-73
2022/03/02 00:26:34;;;;;;;33.22;16.33;;;;;;;4.17;91.71;102851.50;5065483;28;20115;-73
2022/03/02 00:29:00;;;;;;;35.78;15.60;;;;;;;4.23;91.73;102852.09;5063219;28;20036;-73
2022/03/02 00:31:25;;;;;;;31.25;16.00;;;;;;;4.20;91.70;102851.34;5061834;28;20040;-73
2022/03/02 00:33:51;;;;;;;33.03;16.70;;;;;;;4.21;92.72;102855.69;5063589;28;20051;-73
2022/03/02 00:36:16;;;;;;;34.63;17.75;;;;;;;4.19;92.25;102855.75;5045399;28;20092;-73
2022/03/02 00:38:42;;;;;;;29.48;15.07;;;;;;;4.14;92.82;102839.41;5064480;28;20484;-73
2022/03/02 00:41:08;;;;;;;27.77;14.73;;;;;;;4.19;91.88;102854.91;5058917;28;20130;-72
2022/03/02 00:43:33;;;;;;;32.60;16.45;;;;;;;4.09;91.73;102833.47;5064443;28;20028;-73
2022/03/02 00:45:59;;;;;;;25.88;14.23;;;;;;;4.12;92.14;102836.84;5042884;28;20083;-73
2022/03/02 00:48:24;;;;;;;33.55;15.07;;;;;;;4.07;91.77;102822.22;5059998;28;20041;-73
2022/03/02 00:50:50;;;;;;;28.88;15.60;;;;;;;4.22;91.96;102847.78;5065421;28;20028;-73
2022/03/02 00:53:16;;;;;;;32.05;16.95;;;;;;;4.22;90.90;102846.94;5066076;28;20124;-73
2022/03/02 00:55:41;;;;;;;31.38;15.93;;;;;;;4.19;91.54;102841.84;5058928;28;20312;-73
2022/03/02 00:58:07;;;;;;;30.67;15.32;;;;;;;4.10;90.84;102837.81;5063056;28;20029;-72
2022/03/02 01:00:33;;;;;;;32.17;17.00;;;;;;;4.19;91.29;102842.69;5063041;28;20029;-73
2022/03/02 01:02:58;;;;;;;36.67;15.90;;;;;;;4.17;91.40;102854.09;5060596;28;20063;-73
2022/03/02 01:05:24;;;;;;;33.22;15.10;;;;;;;4.21;91.27;102850.47;5058294;28;20040;-73
2022/03/02 01:07:49;;;;;;;30.27;15.65;;;;;;;4.26;90.71;102851.13;5059283;28;20041;-73
2022/03/02 01:10:16;;;;;;;28.75;14.68;;;;;;;4.27;90.42;102850.22;5065132;28;20056;-73
2022/03/02 01:12:43;;;;;;;29.00;16.10;;;;;;;4.27;91.11;102843.25;5058008;28;20500;-73
2022/03/02 01:15:10;;;;;;;31.40;16.40;;;;;;;4.26;90.34;102843.28;5061390;28;20071;-73
2022/03/02 01:17:36;;;;;;;36.30;16.42;;;;;;;4.21;90.35;102834.78;5063685;28;20036;-73
2022/03/02 01:20:04;;;;;;;33.92;17.23;;;;;;;4.03;90.89;102824.13;5065644;28;20047;-73
2022/03/02 01:22:30;;;;;;;33.00;15.95;;;;;;;4.05;91.79;102827.53;5062648;28;20056;-73
2022/03/02 01:24:55;;;;;;;31.00;16.88;;;;;;;4.05;91.00;102824.94;5061505;28;20143;-73
2022/03/02 01:27:21;;;;;;;32.30;15.10;;;;;;;4.06;91.26;102829.22;5062774;28;20047;-73
2022/03/02 01:29:47;;;;;;;32.00;16.58;;;;;;;4.06;91.25;102821.38;5061706;28;20051;-73
2022/03/02 01:32:12;;;;;;;32.85;16.60;;;;;;;3.95;91.52;102794.84;5066001;28;20033;-73
2022/03/02 01:34:38;;;;;;;36.88;17.45;;;;;;;4.03;91.68;102803.22;5061924;28;20028;-73
2022/03/02 01:37:04;;;;;;;38.42;19.65;;;;;;;3.96;91.36;102796.50;5062470;28;20033;-73
2022/03/02 01:39:30;;;;;;;29.80;15.80;;;;;;;4.07;90.84;102803.94;5059917;28;20032;-73
2022/03/02 01:41:56;;;;;;;35.83;17.05;;;;;;;3.90;91.46;102778.50;5058446;28;20401;-73
2022/03/02 01:44:21;;;;;;;33.22;16.55;;;;;;;4.02;91.64;102798.91;5064776;28;20033;-73
2022/03/02 01:46:47;;;;;;;36.45;18.13;;;;;;;3.99;91.27;102799.03;5065288;28;20548;-73
2022/03/02 01:49:12;;;;;;;41.40;18.33;;;;;;;3.95;90.56;102787.00;5062597;28;20444;-73
2022/03/02 01:51:38;;;;;;;36.55;18.85;;;;;;;3.91;91.24;102801.06;5065023;28;20077;-73
2022/03/02 01:54:04;;;;;;;38.15;18.63;;;;;;;3.92;91.75;102798.41;5056517;28;20563;-73
2022/03/02 01:56:32;;;;;;;36.22;18.20;;;;;;;3.89;91.08;102800.28;5056388;28;20028;-73
2022/03/02 01:58:57;;;;;;;35.67;16.35;;;;;;;3.87;91.48;102796.88;5062711;28;20044;-73
2022/03/02 02:01:22;;;;;;;34.13;17.60;;;;;;;3.82;91.42;102794.44;5058648;28;20025;-73
2022/03/02 02:03:48;;;;;;;41.75;19.25;;;;;;;3.80;92.22;102792.81;5059344;28;20029;-73
2022/03/02 02:06:14;;;;;;;36.35;18.45;;;;;;;3.74;92.60;102790.41;5062267;28;20032;-73
2022/03/02 02:08:41;;;;;;;39.05;18.83;;;;;;;3.71;93.97;102789.63;5061094;28;20028;-73
2022/03/02 02:11:09;;;;;;;38.00;19.65;;;;;;;3.48;93.97;102767.00;5060726;28;20063;-73
2022/03/02 02:13:34;;;;;;;43.67;19.17;;;;;;;3.62;94.67;102794.34;5065371;28;20514;-73
2022/03/02 02:16:01;;;;;;;39.38;17.95;;;;;;;3.55;94.64;102791.13;5061146;28;20017;-73
2022/03/02 02:18:27;;;;;;;41.45;20.42;;;;;;;3.40;95.32;102774.25;5063022;28;20407;-73
2022/03/02 02:20:53;;;;;;;38.17;18.33;;;;;;;3.43;95.40;102788.94;5060539;28;20033;-73
2022/03/02 02:23:18;;;;;;;40.53;18.77;;;;;;;3.27;95.22;102786.91;5059389;28;20040;-73
2022/03/02 02:25:44;;;;;;;40.60;19.70;;;;;;;3.30;95.67;102794.59;5062692;28;20029;-73
2022/03/02 02:28:10;;;;;;;43.15;20.10;;;;;;;3.23;96.33;102795.75;5054363;28;20033;-73
2022/03/02 02:30:36;;;;;;;43.72;18.85;;;;;;;3.17;95.81;102787.28;5062512;28;20078;-73
2022/03/02 02:33:02;;;;;;;37.78;18.63;;;;;;;3.06;96.24;102791.09;5064380;28;20127;-73
2022/03/02 02:35:27;;;;;;;40.53;18.48;;;;;;;2.90;97.07;102763.88;5060594;28;20055;-73
2022/03/02 02:37:54;;;;;;;39.35;18.02;;;;;;;2.96;97.67;102774.09;5058961;28;20025;-73
2022/03/02 02:40:21;;;;;;;41.30;18.65;;;;;;;2.93;97.36;102770.72;5059738;28;20029;-72
2022/03/02 02:42:48;;;;;;;38.25;19.25;;;;;;;2.89;97.10;102768.22;5062113;28;20031;-72
2022/03/02 02:45:20;;;;;;;40.53;19.08;;;;;;;2.82;96.99;102768.50;5057353;28;20020;-72
2022/03/02 02:47:46;;;;;;;40.70;20.98;;;;;;;2.81;97.74;102765.03;5057116;28;20120;-72
2022/03/02 02:50:20;;;;;;;38.70;17.60;;;;;;;2.75;97.99;102767.00;5062441;28;20480;-72
2022/03/02 02:52:46;;;;;;;38.50;18.38;;;;;;;2.71;97.77;102758.41;5055138;28;20512;-72
2022/03/02 02:55:13;;;;;;;37.20;17.73;;;;;;;2.65;97.41;102759.47;5058210;28;20013;-73
2022/03/02 02:57:39;;;;;;;38.53;17.17;;;;;;;2.48;97.42;102735.72;5053798;28;20025;-73
2022/03/02 03:00:08;;;;;;;37.80;17.45;;;;;;;2.58;97.66;102768.41;5061894;28;20058;-73
2022/03/02 03:02:33;;;;;;;35.55;18.17;;;;;;;2.42;98.19;102752.44;5059470;28;20028;-73
2022/03/02 03:04:59;;;;;;;39.40;17.73;;;;;;;2.38;98.04;102743.00;5054753;28;20021;-73
2022/03/02 03:07:24;;;;;;;40.70;20.00;;;;;;;2.43;97.54;102764.53;5058242;28;20028;-73
2022/03/02 03:09:50;;;;;;;34.10;17.38;;;;;;;2.41;98.07;102763.75;5059811;28;20136;-73
2022/03/02 03:12:15;;;;;;;39.47;17.85;;;;;;;2.36;98.05;102763.06;5057239;28;20111;-73
2022/03/02 03:14:40;;;;;;;36.22;17.52;;;;;;;2.31;98.88;102764.97;5060712;28;20029;-73
2022/03/02 03:17:06;;;;;;;37.30;17.25;;;;;;;2.16;98.25;102742.84;5058532;28;20170;-73
2022/03/02 03:19:31;;;;;;;44.03;19.13;;;;;;;2.28;98.38;102757.22;5055775;28;20033;-73
2022/03/02 03:22:06;;;;;;;37.10;17.67;;;;;;;2.26;99.13;102761.63;5061076;28;20033;-73
2022/03/02 03:24:32;;;;;;;39.97;17.67;;;;;;;2.10;98.42;102743.03;5057101;28;20428;-73
2022/03/02 03:26:57;;;;;;;34.08;16.13;;;;;;;2.13;99.07;102761.16;5061645;28;20028;-73
2022/03/02 03:29:22;;;;;;;30.77;16.30;;;;;;;1.94;98.37;102740.06;5060468;28;20025;-73
2022/03/02 03:31:48;;;;;;;37.83;18.00;;;;;;;2.02;98.66;102756.28;5044358;28;20024;-73
2022/03/02 03:34:13;;;;;;;39.78;17.38;;;;;;;1.95;99.27;102748.72;5065465;28;20020;-73
2022/03/02 03:36:38;;;;;;;35.75;17.90;;;;;;;1.92;99.74;102747.09;5067962;28;20104;-73
2022/03/02 03:39:04;;;;;;;38.70;20.15;;;;;;;2.00;100.00;102745.09;5049892;28;20031;-73
2022/03/02 03:41:30;;;;;;;42.60;18.60;;;;;;;2.03;100.00;102747.59;5066856;28;20028;-72
2022/03/02 03:43:55;;;;;;;38.90;20.90;;;;;;;2.02;100.00;102743.28;5070687;28;20033;-73
2022/03/02 03:46:20;;;;;;;39.45;18.55;;;;;;;2.04;100.00;102748.44;5056874;28;20090;-73
2022/03/02 03:48:46;;;;;;;35.28;17.92;;;;;;;1.98;100.00;102746.91;5066411;28;20059;-73
2022/03/02 03:51:11;;;;;;;39.72;19.45;;;;;;;1.91;100.00;102740.16;5062521;28;20029;-73
2022/03/02 03:53:37;;;;;;;42.55;19.75;;;;;;;1.93;100.00;102748.78;5068262;28;20032;-73
2022/03/02 03:56:02;;;;;;;36.60;18.15;;;;;;;1.88;100.00;102750.69;5066917;28;20040;-73
2022/03/02 03:58:28;;;;;;;34.70;17.77;;;;;;;1.88;100.00;102748.06;5062112;28;20032;-72
2022/03/02 04:00:53;;;;;;;36.35;19.73;;;;;;;1.88;100.00;102753.28;5055710;28;20029;-72
2022/03/02 04:03:19;;;;;;;35.20;19.50;;;;;;;1.88;100.00;102748.06;5062680;28;20029;-73
2022/03/02 04:05:44;;;;;;;32.65;16.40;;;;;;;1.88;100.00;102742.03;5065652;28;20036;-73
2022/03/02 04:08:09;;;;;;;38.17;18.17;;;;;;;1.75;100.00;102716.34;5049346;28;20115;-73
2022/03/02 04:10:35;;;;;;;42.55;18.38;;;;;;;1.88;100.00;102734.22;5045695;28;20083;-73
2022/03/02 04:13:00;;;;;;;38.83;20.15;;;;;;;1.82;100.00;102735.22;5060433;28;20025;-73
2022/03/02 04:15:26;;;;;;;36.35;17.38;;;;;;;1.80;100.00;102737.03;5064329;28;20163;-73
2022/03/02 04:17:51;;;;;;;35.45;17.52;;;;;;;1.77;100.00;102713.72;5054744;28;20099;-73
2022/03/02 04:20:17;;;;;;;35.15;17.73;;;;;;;1.67;100.00;102704.47;5063966;28;20040;-73
2022/03/02 04:22:42;;;;;;;35.17;17.52;;;;;;;1.79;100.00;102724.94;5059486;28;20045;-73
2022/03/02 04:25:08;;;;;;;37.88;18.40;;;;;;;1.80;100.00;102724.00;5052441;28;20044;-73
2022/03/02 04:27:34;;;;;;;38.83;17.27;;;;;;;1.77;100.00;102722.34;5058419;28;20091;-73
2022/03/02 04:30:01;;;;;;;35.45;17.90;;;;;;;1.67;100.00;102704.47;5058656;28;20025;-73
2022/03/02 04:32:27;;;;;;;38.28;16.75;;;;;;;1.74;100.00;102719.88;5040956;28;20472;-72
2022/03/02 04:34:52;;;;;;;35.38;17.23;;;;;;;1.74;99.71;102716.38;5062485;28;20017;-72
2022/03/02 04:37:18;;;;;;;35.20;17.08;;;;;;;1.77;99.76;102713.72;5064995;28;20029;-72
2022/03/02 04:39:43;;;;;;;43.95;20.48;;;;;;;1.69;100.00;102702.66;5056867;28;20020;-72
2022/03/02 04:42:09;;;;;;;32.80;17.48;;;;;;;1.62;100.00;102700.25;5066991;28;20538;-72
2022/03/02 04:44:34;;;;;;;35.78;16.58;;;;;;;1.54;100.00;102709.19;5066460;28;20032;-73
2022/03/02 04:46:59;;;;;;;34.97;17.38;;;;;;;1.41;100.00;102693.09;5053980;28;20124;-73
2022/03/02 04:49:25;;;;;;;33.10;17.50;;;;;;;1.44;100.00;102706.00;5053766;28;20037;-73
2022/03/02 04:51:50;;;;;;;35.17;17.48;;;;;;;1.23;100.00;102684.06;5053353;28;20033;-73
2022/03/02 04:57:04;;;;;;;31.77;16.42;;;;;;;1.37;100.00;102705.34;5055846;28;20083;-73
2022/03/02 04:59:29;;;;;;;36.15;17.60;;;;;;;1.33;100.00;102700.25;5058536;28;20043;-73
2022/03/02 05:01:54;;;;;;;31.95;17.27;;;;;;;1.35;100.00;102706.25;5055554;28;20086;-72
2022/03/02 05:04:20;;;;;;;34.75;16.08;;;;;;;1.34;100.00;102712.38;5056081;28;20132;-73
2022/03/02 05:06:46;;;;;;;32.70;16.73;;;;;;;1.32;100.00;102715.00;5070027;28;20070;-73
2022/03/02 05:09:11;;;;;;;32.28;16.73;;;;;;;1.31;100.00;102708.13;5057613;28;20020;-73
2022/03/02 05:11:36;;;;;;;35.85;17.95;;;;;;;1.27;100.00;102708.25;5062435;28;20052;-73
2022/03/02 05:14:02;;;;;;;34.63;17.02;;;;;;;1.28;100.00;102705.59;5053431;28;20083;-73
2022/03/02 05:16:27;;;;;;;35.15;17.75;;;;;;;1.27;99.73;102690.06;5052470;28;20485;-73
2022/03/02 05:18:52;;;;;;;43.10;17.95;;;;;;;1.31;100.00;102704.69;5061419;28;20170;-73
2022/03/02 05:21:18;;;;;;;30.15;17.60;;;;;;;1.19;99.92;102675.50;5064298;28;20476;-73
2022/03/02 05:23:43;;;;;;;32.70;17.25;;;;;;;1.33;100.00;102689.84;5064432;28;20455;-73
2022/03/02 05:26:09;;;;;;;31.88;17.40;;;;;;;1.26;99.88;102693.53;5067802;28;20413;-73
2022/03/02 05:28:36;;;;;;;37.53;17.15;;;;;;;1.25;99.89;102690.09;5052766;28;20025;-73
2022/03/02 05:31:02;;;;;;;34.35;16.70;;;;;;;1.18;100.00;102683.38;5034768;28;20507;-72
2022/03/02 05:33:27;;;;;;;33.15;16.25;;;;;;;1.08;99.41;102671.50;5062935;28;20032;-72
2022/03/02 05:35:52;;;;;;;43.63;17.42;;;;;;;1.19;99.10;102690.25;5063518;28;20033;-72
2022/03/02 05:38:18;;;;;;;35.95;16.67;;;;;;;1.17;99.58;102694.66;5051252;28;20123;-72
2022/03/02 05:40:43;;;;;;;37.03;16.88;;;;;;;1.11;99.13;102695.69;5060130;28;20058;-72
2022/03/02 05:43:08;;;;;;;37.75;17.70;;;;;;;0.99;98.80;102688.22;5058869;28;20495;-72
2022/03/02 05:45:34;;;;;;;32.20;18.10;;;;;;;1.05;99.24;102700.22;5052857;28;20037;-72
2022/03/02 05:47:59;;;;;;;34.45;17.20;;;;;;;1.01;99.72;102689.88;5052113;28;20063;-72
2022/03/02 05:50:25;;;;;;;34.35;16.95;;;;;;;1.06;99.69;102696.69;5051296;28;20111;-72
2022/03/02 05:52:50;;;;;;;37.97;18.02;;;;;;;0.89;99.54;102658.16;5062353;28;20074;-73
2022/03/02 05:55:16;;;;;;;35.60;16.42;;;;;;;1.05;99.67;102695.84;5021402;28;20040;-72
2022/03/02 05:57:41;;;;;;;33.90;17.83;;;;;;;1.03;99.81;102698.50;5052073;28;20469;-72
2022/03/02 06:00:09;;;;;;;34.90;17.85;;;;;;;1.02;100.00;102694.19;5052432;28;20029;-72
2022/03/02 06:02:35;;;;;;;34.20;17.23;;;;;;;1.00;99.82;102690.78;5050043;28;20021;-72
2022/03/02 06:05:00;;;;;;;37.83;17.33;;;;;;;0.93;99.98;102691.84;5052335;28;20036;-73
2022/03/02 06:07:26;;;;;;;33.67;17.85;;;;;;;0.86;99.54;102679.06;5049046;28;20033;-73
2022/03/02 06:09:51;;;;;;;36.15;17.90;;;;;;;0.85;99.81;102701.63;5066506;28;20075;-73
2022/03/02 06:12:17;;;;;;;34.88;16.42;;;;;;;0.90;99.54;102711.88;5053632;28;20025;-73
2022/03/02 06:14:43;;;;;;;36.40;17.48;;;;;;;0.88;99.84;102703.28;5049667;28;20036;-73
2022/03/02 06:17:09;;;;;;;31.35;15.35;;;;;;;0.79;100.00;102692.22;5047788;28;20024;-72
2022/03/02 06:19:35;;;;;;;37.00;18.95;;;;;;;0.86;100.00;102711.09;5047092;28;20063;-72
2022/03/02 06:22:03;;;;;;;40.05;18.88;;;;;;;0.79;100.00;102702.63;5041061;28;20060;-72
2022/03/02 06:24:30;;;;;;;31.67;17.27;;;;;;;0.72;100.00;102693.28;5051422;28;20085;-71
2022/03/02 06:26:56;;;;;;;31.70;18.40;;;;;;;0.89;100.00;102725.75;5045213;28;20459;-72
2022/03/02 06:29:21;;;;;;;33.28;16.05;;;;;;;0.85;100.00;102718.94;5046500;28;20029;-72
2022/03/02 06:31:47;;;;;;;31.02;16.25;;;;;;;0.87;100.00;102727.53;5030281;28;20473;-72
2022/03/02 06:34:12;;;;;;;30.42;15.85;;;;;;;0.85;100.00;102727.59;5045961;28;20033;-72
2022/03/02 06:36:37;;;;;;;33.35;18.67;;;;;;;0.77;100.00;102706.16;5047060;28;20072;-72
2022/03/02 06:39:04;;;;;;;42.65;17.02;;;;;;;0.79;100.00;102730.38;5045639;28;20075;-72
2022/03/02 06:41:44;;;;;;;35.03;16.63;;;;;;;0.83;100.00;102734.59;5044464;28;20511;-71
2022/03/02 06:44:30;;;;;;;34.40;18.05;;;;;;;0.78;100.00;102726.91;5044701;28;20548;-71
2022/03/02 06:47:09;;;;;;;33.00;17.25;;;;;;;0.89;100.00;102736.16;5052635;28;20499;-71
2022/03/02 06:50:10;;;;;;;32.28;17.02;;;;;;;0.90;99.72;102736.13;5049816;28;20025;-72
2022/03/02 06:52:35;;;;;;;33.30;16.08;;;;;;;0.93;99.26;102737.78;5062650;28;20292;-72
2022/03/02 06:55:07;;;;;;;43.42;17.25;;;;;;;0.94;99.85;102734.31;5046839;28;20052;-72
2022/03/02 06:57:34;;;;;;;32.08;17.00;;;;;;;0.96;99.50;102735.13;5054930;28;20098;-72
2022/03/02 07:00:04;;;;;;;36.85;17.10;;;;;;;0.98;99.08;102735.91;5063579;28;20366;-74
2022/03/02 07:02:44;;;;;;;38.72;19.08;;;;;;;1.06;99.64;102725.31;5059510;28;20051;-73
2022/03/02 07:05:10;;;;;;;32.15;17.48;;;;;;;0.96;99.83;102701.31;5051399;28;20112;-73
2022/03/02 07:07:36;;;;;;;38.45;17.67;;;;;;;1.13;99.61;102725.09;5025103;28;20159;-73
2022/03/02 07:10:03;;;;;;;31.05;16.90;;;;;;;1.22;99.92;102724.84;5053197;28;20326;-73
2022/03/02 07:12:29;;;;;;;35.85;18.95;;;;;;;1.19;99.59;102708.47;5056370;28;20032;-73
2022/03/02 07:14:55;;;;;;;37.53;17.67;;;;;;;1.33;99.65;102731.47;5058168;28;20039;-72
2022/03/02 07:17:23;;;;;;;40.28;19.13;;;;;;;1.23;99.35;102710.94;5055316;28;20078;-72
2022/03/02 07:19:49;;;;;;;40.45;17.15;;;;;;;1.38;98.89;102734.81;5053426;28;20128;-72
2022/03/02 07:22:19;;;;;;;43.40;16.98;;;;;;;1.39;99.41;102723.50;5058438;28;20107;-73
2022/03/02 07:24:53;;;;;;;35.75;17.60;;;;;;;1.55;99.65;102732.56;5056879;28;20058;-73
2022/03/02 07:27:20;;;;;;;35.00;18.45;;;;;;;1.59;99.16;102733.31;5055451;28;20497;-73
2022/03/02 07:29:49;;;;;;;34.88;17.42;;;;;;;1.66;98.90;102729.66;5056260;28;20032;-73
2022/03/02 07:32:17;;;;;;;35.22;19.10;;;;;;;1.72;98.93;102733.78;5060033;28;20035;-73
2022/03/02 07:34:44;;;;;;;38.97;18.45;;;;;;;1.82;98.29;102737.84;5060037;28;20074;-73
2022/03/02 07:37:09;;;;;;;39.47;18.63;;;;;;;1.87;97.82;102737.69;5058629;28;20028;-73
2022/03/02 07:39:35;;;;;;;41.67;19.85;;;;;;;1.88;97.73;102735.06;5058316;28;20025;-73
2022/03/02 07:42:02;;;;;;;38.22;18.23;;;;;;;1.99;97.56;102735.56;5046495;28;20051;-72
2022/03/02 07:44:28;;;;;;;31.08;16.90;;;;;;;1.92;97.22;102715.84;5060451;28;20045;-72
2022/03/02 07:46:53;;;;;;;37.60;20.08;;;;;;;2.21;97.29;102737.50;5054775;28;20129;-72
2022/03/02 07:49:20;;;;;;;39.90;19.15;;;;;;;2.28;96.85;102738.16;5061711;28;20440;-72
2022/03/02 07:51:46;;;;;;;34.88;18.17;;;;;;;2.41;96.13;102740.28;5053690;28;20086;-72
2022/03/02 07:54:14;;;;;;;39.03;17.98;;;;;;;2.33;96.42;102721.47;5055308;28;20400;-73
2022/03/02 07:56:40;;;;;;;41.95;20.50;;;;;;;2.53;95.41;102727.78;5060897;28;20024;-73
2022/03/02 07:59:07;;;;;;;37.13;20.23;;;;;;;2.59;96.02;102733.63;5062264;28;20422;-73
2022/03/02 08:01:35;;;;;;;36.30;19.48;;;;;;;2.72;95.94;102710.56;5047984;28;20444;-73
2022/03/02 08:04:06;;;;;;;43.00;20.77;;;;;;;3.19;95.64;102728.06;5061329;28;20021;-73
2022/03/02 08:06:36;;;;;;;37.45;18.90;;;;;;;3.73;93.52;102732.13;5043432;28;20043;-73
2022/03/02 08:09:07;;;;;;;38.42;20.33;;;;;;;4.34;91.44;102734.06;5062576;28;20032;-74
2022/03/02 08:11:34;;;;;;;41.22;19.17;;;;;;;5.09;89.97;102732.59;5055496;28;20059;-73
2022/03/02 08:14:00;;;;;;;37.40;18.98;;;;;;;5.77;86.19;102710.25;5052506;28;20093;-74
2022/03/02 08:16:27;;;;;;;34.65;18.52;;;;;;;6.38;81.42;102735.28;5035100;28;20049;-73
2022/03/02 08:18:53;;;;;;;34.03;17.88;;;;;;;7.05;78.98;102730.13;5058880;28;20377;-73
2022/03/02 08:21:20;;;;;;;32.15;18.45;;;;;;;7.79;75.97;102705.94;5055588;28;20040;-73
2022/03/02 08:23:49;;;;;;;31.02;19.25;;;;;;;8.55;73.36;102713.00;5053906;28;20037;-73
2022/03/02 08:26:18;;;;;;;30.30;18.42;;;;;;;9.44;69.79;102725.19;5057065;28;20554;-73
2022/03/02 08:28:46;;;;;;;31.88;18.90;;;;;;;9.48;67.05;102738.06;5059321;28;20048;-73
2022/03/02 08:31:12;;;;;;;31.15;18.95;;;;;;;10.06;66.78;102736.13;5063340;28;20416;-73
2022/03/02 08:33:41;;;;;;;32.58;19.08;;;;;;;10.49;65.26;102720.13;5053150;28;20070;-73
2022/03/02 08:36:09;;;;;;;33.92;20.60;;;;;;;10.54;62.67;102733.00;5058069;28;20037;-73
2022/03/02 08:38:40;;;;;;;32.20;18.05;;;;;;;11.34;62.04;102730.09;5037340;28;20449;-74
2022/03/02 08:41:07;;;;;;;33.42;17.17;;;;;;;11.89;60.17;102728.81;5056878;28;20057;-73
2022/03/02 08:43:35;;;;;;;30.30;19.17;;;;;;;11.91;60.32;102732.19;5060562;28;20071;-73
2022/03/02 08:46:00;;;;;;;30.58;19.88;;;;;;;11.47;59.97;102733.56;5058771;28;20036;-73
2022/03/02 08:48:26;;;;;;;30.60;19.05;;;;;;;11.74;58.94;102740.50;5058356;28;20340;-73
2022/03/02 08:50:56;;;;;;;29.10;18.80;;;;;;;11.81;59.32;102733.78;5056201;28;20025;-73
2022/03/02 08:53:24;;;;;;;30.60;19.67;;;;;;;12.24;58.89;102738.59;5056718;28;20028;-73
2022/03/02 08:55:51;;;;;;;29.90;19.10;;;;;;;11.34;58.03;102730.09;5060086;28;20017;-74
2022/03/02 08:58:16;;;;;;;36.08;20.23;;;;;;;10.28;59.99;102732.06;5034880;28;20532;-74
2022/03/02 09:00:42;;;;;;;31.02;18.67;;;;;;;10.73;61.18;102726.47;5060257;28;20155;-74
2022/03/02 09:03:12;;;;;;;30.05;17.85;;;;;;;10.23;64.15;102729.72;5054928;28;20017;-74
2022/03/02 09:05:38;;;;;;;33.80;20.20;;;;;;;11.45;59.22;102731.97;5058387;28;20028;-74
2022/03/02 09:08:04;;;;;;;30.13;18.42;;;;;;;11.40;58.82;102713.81;5059393;28;20108;-74
2022/03/02 09:10:29;;;;;;;29.27;18.50;;;;;;;11.93;58.30;102725.00;5059626;28;20081;-74
2022/03/02 09:12:56;;;;;;;30.42;18.63;;;;;;;11.59;58.94;102707.22;5054638;28;20057;-74
2022/03/02 09:15:22;;;;;;;32.67;18.92;;;;;;;11.93;57.92;102702.94;5054951;28;20028;-74
2022/03/02 09:17:47;;;;;;;29.38;18.17;;;;;;;12.48;56.85;102719.19;5052232;28;20033;-74
2022/03/02 09:20:13;;;;;;;32.08;18.83;;;;;;;13.02;55.60;102713.22;5056554;28;20051;-74
2022/03/02 09:22:41;;;;;;;28.27;18.20;;;;;;;13.56;54.79;102717.75;5065488;28;20037;-74
2022/03/02 09:25:08;;;;;;;29.48;18.83;;;;;;;14.52;52.49;102720.50;5056808;28;20021;-73
2022/03/02 09:27:34;;;;;;;29.42;19.35;;;;;;;14.76;51.31;102707.84;5058063;28;20103;-74
2022/03/02 09:30:03;;;;;;;27.42;19.10;;;;;;;15.40;50.54;102719.13;5058208;28;20028;-74
2022/03/02 09:32:31;;;;;;;28.50;19.35;;;;;;;15.68;48.99;102711.31;5062758;28;20102;-74
2022/03/02 09:34:59;;;;;;;28.60;19.60;;;;;;;15.96;49.06;102715.03;5063040;28;20044;-74
2022/03/02 09:37:27;;;;;;;29.92;19.08;;;;;;;16.68;47.80;102719.03;5060489;28;20046;-74
2022/03/02 09:39:52;;;;;;;29.02;19.48;;;;;;;17.14;47.22;102713.84;5060917;28;20029;-74
2022/03/02 09:42:26;;;;;;;29.10;19.08;;;;;;;17.13;46.13;102712.97;5060991;28;20140;-73
2022/03/02 09:44:59;;;;;;;29.38;19.33;;;;;;;16.55;46.15;102698.00;5058287;28;20395;-73
2022/03/02 09:47:31;;;;;;;28.33;18.23;;;;;;;17.46;46.22;102702.69;5038651;28;20433;-73
2022/03/02 09:49:57;;;;;;;28.17;19.55;;;;;;;16.45;44.86;102711.34;5057388;28;20450;-73
2022/03/02 09:52:23;;;;;;;26.92;18.73;;;;;;;16.78;45.75;102698.50;5058759;28;20036;-73
2022/03/02 09:54:55;;;;;;;25.35;19.08;;;;;;;18.41;43.82;102701.22;5058338;28;20071;-73
2022/03/02 09:57:21;;;;;;;30.90;19.35;;;;;;;16.62;44.56;102691.09;5054731;28;20024;-73
2022/03/02 09:59:55;;;;;;;27.02;18.65;;;;;;;17.76;44.23;102687.31;5056298;28;20507;-73
2022/03/02 10:02:40;;;;;;;25.58;17.80;;;;;;;19.58;41.88;102686.38;5055545;28;20021;-73
2022/03/02 10:05:09;;;;;;;28.17;18.42;;;;;;;20.62;39.36;102690.25;5055608;28;20161;-73
2022/03/02 10:07:44;;;;;;;26.42;18.58;;;;;;;20.89;38.88;102674.72;5057587;28;20048;-73
2022/03/02 10:10:17;;;;;;;23.15;17.02;;;;;;;21.05;39.87;102679.16;5053729;28;20025;-73
2022/03/02 10:12:42;;;;;;;26.55;18.63;;;;;;;21.43;37.51;102684.72;5054910;28;20029;-74
2022/03/02 10:15:12;;;;;;;28.30;18.73;;;;;;;20.95;38.15;102685.59;5053395;28;20366;-74
2022/03/02 10:17:40;;;;;;;23.13;18.80;;;;;;;21.30;38.11;102683.41;5059544;28;20021;-74
2022/03/02 10:20:10;;;;;;;24.92;18.50;;;;;;;21.50;38.76;102691.03;5056018;28;20118;-74
2022/03/02 10:22:39;;;;;;;24.25;18.92;;;;;;;22.08;37.13;102686.06;5054695;28;20036;-74
2022/03/02 10:25:08;;;;;;;25.38;19.45;;;;;;;19.52;38.46;102665.59;5056366;28;20105;-74
2022/03/02 10:28:04;;;;;;;26.58;19.90;;;;;;;19.39;41.28;102681.31;5057005;28;20031;-75
2022/03/02 10:30:37;;;;;;;24.58;18.65;;;;;;;21.25;39.35;102679.56;5053667;28;20048;-75
2022/03/02 10:33:18;;;;;;;26.40;18.30;;;;;;;21.64;38.61;102668.75;5057057;28;20468;-75
2022/03/02 10:35:50;;;;;;;25.42;18.60;;;;;;;21.67;36.51;102670.28;5054893;28;20032;-74
2022/03/02 10:38:26;;;;;;;26.60;18.45;;;;;;;20.86;37.73;102675.03;5053819;28;20029;-74
2022/03/02 10:40:58;;;;;;;27.38;18.45;;;;;;;21.11;39.10;102675.78;5053155;28;20040;-74
2022/03/02 10:43:33;;;;;;;26.88;19.83;;;;;;;19.11;38.03;102686.91;5055400;28;20028;-75
2022/03/02 10:46:00;;;;;;;26.77;17.60;;;;;;;18.76;39.98;102664.66;5056356;28;20027;-74
2022/03/02 10:48:38;;;;;;;22.80;17.38;;;;;;;20.43;38.95;102672.66;5055206;28;20089;-74
2022/03/02 10:51:06;;;;;;;23.45;18.02;;;;;;;19.56;39.54;102661.59;5055864;28;20502;-74
2022/03/02 10:53:35;;;;;;;23.95;16.95;;;;;;;21.39;37.72;102668.09;5055444;28;20432;-74
2022/03/02 10:56:04;;;;;;;22.73;17.98;;;;;;;21.92;36.54;102670.91;5056648;28;20032;-74
2022/03/02 10:58:30;;;;;;;22.80;17.52;;;;;;;19.17;38.56;102666.69;5057976;28;20150;-74
2022/03/02 11:00:58;;;;;;;25.50;18.90;;;;;;;16.24;43.65;102660.06;5056767;28;20507;-74
2022/03/02 11:03:28;;;;;;;24.33;18.50;;;;;;;18.12;42.67;102657.91;5058849;28;20024;-74
2022/03/02 11:05:59;;;;;;;26.55;18.77;;;;;;;19.97;39.76;102648.25;5056352;28;20024;-74
2022/03/02 11:08:25;;;;;;;22.55;17.73;;;;;;;21.27;39.10;102656.88;5056974;28;20085;-74
2022/03/02 11:10:50;;;;;;;24.98;18.45;;;;;;;21.55;36.79;102642.97;5056931;28;20048;-75
2022/03/02 11:13:16;;;;;;;24.35;18.02;;;;;;;20.62;38.94;102654.50;5055646;28;20039;-75
2022/03/02 11:15:52;;;;;;;24.27;18.67;;;;;;;21.92;37.09;102670.91;5039435;28;20614;-74
2022/03/02 11:18:30;;;;;;;27.48;18.02;;;;;;;19.98;39.11;102666.00;5066606;28;20033;-74